Bismarck, ND

6:26 AM CST on January 26, 2015 (GMT -0600)
Highland Acres | Change Station
CLOSE
Current Station
Personal Weather Station
Location: Bismarck, ND
Elevation: 1713 ft
Nearby Weather Stations

Elev 1713 ft 46.81 °N, 100.81 °W | Updated 13 minutes ago

Partly Cloudy
Partly Cloudy
40.6 °F
Feels Like 37 °F
N
5.3
Wind Variable Wind from West

Today
High -- | Low -- °F
--% Chance of Precip.
Yesterday
High -- | Low -- °F
Precip. -- in
8:14 AM 5:37 PM
Waxing Crescent, 42% visible
Pressure 29.89 in
Visibility 10.0 miles
Clouds Few 10000 ft
Windchill 37 °F
Dew Point 36 °F
Humidity 82%
Rainfall 0.00 in
Snow Depth Not available.
UV 0 out of 12
Pollen .10 out of 12
Air Quality Not available.
Flu Activity Not available.
METAR KBIS 261152Z 31009KT 10SM FEW100 05/M01 A2984 RMK AO2 SLP120 T00501006 10056 20011 53008

More Conditions Fewer Conditions

Pressure 29.89 in
Visibility 10.0 miles
Clouds Few 10000 ft
Windchill 37 °F
Dew Point 36 °F
Humidity 82%
Rainfall 0.00 in
Snow Depth Not available.
UV 0 out of 12
Pollen .10 out of 12
Air Quality Not available.
Flu Activity Not available.
METAR KBIS 261152Z 31009KT 10SM FEW100 05/M01 A2984 RMK AO2 SLP120 T00501006 10056 20011 53008

More Conditions Fewer Conditions

10-Day Weather Forecast

Almanac

Astronomy

Jan. 26, 2015 Rise Set
Actual Time
Civil Twilight
Nautical Twilight
Astronomical Twilight
Moon
Length of Visible Light
Length of Day
Tomorrow will be .
, % of the Moon is Illuminated

Today's Extremes

State Highs State Lows

Community

WunderPhotos

Upload Photos

1,790,175 photos uploaded!

WunderBlogs® & News

Nearby

Air Quality

  Air Quality AQ Index Pollutant
Not available.

Snow Depth

Station Depth Elevation

Earthquake Activity

City Distance Mag. Time & Date
Minimum magnitude displayed is 2.5.

Coastal Water Temperatures

Place Temperature

Nearby Weather Stations